sim
Sign-in with your pilot id or email,
or register
Callsign
Passwort

Schedule Details

Flight Number: DLH2093
Departure: Hannover Langenhagen Airport (EDDV) at 08:55
Arrival: Munich Airport (EDDM) at 10:05
Route: Lufthansa Passenger Schedule. Enter filed route here before submitting Pirep.

Weather Information
Getting current METAR information for EDDV 231150Z 24008KT 210V290 9999 FEW045 24/08 Q1005 NOSIG
Getting current METAR information for EDDM 231150Z 24006KT 220V320 9999 FEW010 BKN030 18/16 Q1010 TEMPO SHRA BKN020CB

Schedule Frequency

Route Map